sensor_id;sensor_type;location;lat;lon;timestamp;P1;durP1;ratioP1;P2;durP2;ratioP2
1837;SDS011;918;50.796;6.772;2023-11-21T00:01:53;11.67;;;10.47;;
1837;SDS011;918;50.796;6.772;2023-11-21T00:04:19;12.17;;;11.07;;
1837;SDS011;918;50.796;6.772;2023-11-21T00:06:44;12.77;;;11.30;;
1837;SDS011;918;50.796;6.772;2023-11-21T00:09:12;10.97;;;9.80;;
1837;SDS011;918;50.796;6.772;2023-11-21T00:11:38;12.20;;;11.20;;
1837;SDS011;918;50.796;6.772;2023-11-21T00:14:03;12.57;;;11.37;;
1837;SDS011;918;50.796;6.772;2023-11-21T00:16:29;13.97;;;12.57;;
1837;SDS011;918;50.796;6.772;2023-11-21T00:18:54;14.30;;;11.80;;
1837;SDS011;918;50.796;6.772;2023-11-21T00:21:19;14.70;;;12.53;;
1837;SDS011;918;50.796;6.772;2023-11-21T00:23:45;15.70;;;12.00;;
1837;SDS011;918;50.796;6.772;2023-11-21T00:26:10;14.80;;;12.63;;
1837;SDS011;918;50.796;6.772;2023-11-21T00:28:35;16.37;;;14.67;;
1837;SDS011;918;50.796;6.772;2023-11-21T00:31:01;16.83;;;15.03;;
1837;SDS011;918;50.796;6.772;2023-11-21T00:33:26;17.60;;;14.27;;
1837;SDS011;918;50.796;6.772;2023-11-21T00:35:52;20.40;;;16.90;;
1837;SDS011;918;50.796;6.772;2023-11-21T00:38:17;17.80;;;15.83;;
1837;SDS011;918;50.796;6.772;2023-11-21T00:40:45;17.37;;;15.33;;
1837;SDS011;918;50.796;6.772;2023-11-21T00:43:10;17.73;;;15.30;;
1837;SDS011;918;50.796;6.772;2023-11-21T00:45:35;19.77;;;17.53;;
1837;SDS011;918;50.796;6.772;2023-11-21T00:48:01;20.70;;;15.13;;
1837;SDS011;918;50.796;6.772;2023-11-21T00:50:27;18.10;;;14.97;;
1837;SDS011;918;50.796;6.772;2023-11-21T00:52:52;19.57;;;17.10;;
1837;SDS011;918;50.796;6.772;2023-11-21T00:55:17;21.07;;;16.27;;
1837;SDS011;918;50.796;6.772;2023-11-21T00:57:43;22.30;;;16.50;;
1837;SDS011;918;50.796;6.772;2023-11-21T01:00:08;22.60;;;17.13;;
1837;SDS011;918;50.796;6.772;2023-11-21T01:02:42;23.50;;;17.83;;
1837;SDS011;918;50.796;6.772;2023-11-21T01:05:09;25.47;;;18.77;;
1837;SDS011;918;50.796;6.772;2023-11-21T01:07:35;20.80;;;16.57;;
1837;SDS011;918;50.796;6.772;2023-11-21T01:10:01;24.90;;;18.70;;
1837;SDS011;918;50.796;6.772;2023-11-21T01:12:27;20.17;;;17.50;;
1837;SDS011;918;50.796;6.772;2023-11-21T01:14:52;21.17;;;18.10;;
1837;SDS011;918;50.796;6.772;2023-11-21T01:17:18;24.87;;;17.73;;
1837;SDS011;918;50.796;6.772;2023-11-21T01:19:43;23.83;;;17.63;;
1837;SDS011;918;50.796;6.772;2023-11-21T01:22:09;26.77;;;17.23;;
1837;SDS011;918;50.796;6.772;2023-11-21T01:24:34;29.27;;;19.67;;
1837;SDS011;918;50.796;6.772;2023-11-21T01:26:59;20.67;;;17.23;;
1837;SDS011;918;50.796;6.772;2023-11-21T01:29:24;26.07;;;18.37;;
1837;SDS011;918;50.796;6.772;2023-11-21T01:31:50;21.47;;;18.70;;
1837;SDS011;918;50.796;6.772;2023-11-21T01:34:15;22.60;;;19.37;;
1837;SDS011;918;50.796;6.772;2023-11-21T01:36:40;23.33;;;19.07;;
1837;SDS011;918;50.796;6.772;2023-11-21T01:39:05;25.20;;;19.90;;
1837;SDS011;918;50.796;6.772;2023-11-21T01:41:35;21.90;;;19.23;;
1837;SDS011;918;50.796;6.772;2023-11-21T01:44:01;21.30;;;17.67;;
1837;SDS011;918;50.796;6.772;2023-11-21T01:46:27;22.10;;;19.53;;
1837;SDS011;918;50.796;6.772;2023-11-21T01:48:54;20.83;;;18.63;;
1837;SDS011;918;50.796;6.772;2023-11-21T01:51:19;20.60;;;18.37;;
1837;SDS011;918;50.796;6.772;2023-11-21T01:53:44;25.13;;;21.23;;
1837;SDS011;918;50.796;6.772;2023-11-21T01:56:11;20.23;;;18.07;;
1837;SDS011;918;50.796;6.772;2023-11-21T01:58:37;25.33;;;19.53;;
1837;SDS011;918;50.796;6.772;2023-11-21T02:01:02;22.87;;;20.20;;
1837;SDS011;918;50.796;6.772;2023-11-21T02:03:28;21.97;;;19.10;;
1837;SDS011;918;50.796;6.772;2023-11-21T02:05:53;20.27;;;18.07;;
1837;SDS011;918;50.796;6.772;2023-11-21T02:08:19;19.60;;;17.60;;
1837;SDS011;918;50.796;6.772;2023-11-21T02:10:44;25.20;;;18.77;;
1837;SDS011;918;50.796;6.772;2023-11-21T02:13:10;20.03;;;17.90;;
1837;SDS011;918;50.796;6.772;2023-11-21T02:15:35;31.50;;;18.97;;
1837;SDS011;918;50.796;6.772;2023-11-21T02:18:01;19.57;;;17.47;;
1837;SDS011;918;50.796;6.772;2023-11-21T02:20:28;21.53;;;17.23;;
1837;SDS011;918;50.796;6.772;2023-11-21T02:22:55;20.00;;;17.37;;
1837;SDS011;918;50.796;6.772;2023-11-21T02:25:27;24.47;;;19.20;;
1837;SDS011;918;50.796;6.772;2023-11-21T02:27:54;22.50;;;17.10;;
1837;SDS011;918;50.796;6.772;2023-11-21T02:30:21;21.33;;;17.57;;
1837;SDS011;918;50.796;6.772;2023-11-21T02:32:47;21.63;;;17.60;;
1837;SDS011;918;50.796;6.772;2023-11-21T02:35:13;23.43;;;17.77;;
1837;SDS011;918;50.796;6.772;2023-11-21T02:37:38;19.70;;;17.20;;
1837;SDS011;918;50.796;6.772;2023-11-21T02:40:04;23.30;;;17.80;;
1837;SDS011;918;50.796;6.772;2023-11-21T02:42:31;22.50;;;17.53;;
1837;SDS011;918;50.796;6.772;2023-11-21T02:44:56;22.67;;;17.70;;
1837;SDS011;918;50.796;6.772;2023-11-21T02:47:22;20.20;;;17.20;;
1837;SDS011;918;50.796;6.772;2023-11-21T02:49:48;19.63;;;17.60;;
1837;SDS011;918;50.796;6.772;2023-11-21T02:52:13;20.00;;;17.40;;
1837;SDS011;918;50.796;6.772;2023-11-21T02:54:38;23.00;;;17.50;;
1837;SDS011;918;50.796;6.772;2023-11-21T02:57:04;22.97;;;18.83;;
1837;SDS011;918;50.796;6.772;2023-11-21T02:59:29;19.23;;;17.13;;
1837;SDS011;918;50.796;6.772;2023-11-21T03:01:54;19.33;;;16.80;;
1837;SDS011;918;50.796;6.772;2023-11-21T03:04:21;22.83;;;17.00;;
1837;SDS011;918;50.796;6.772;2023-11-21T03:06:47;17.87;;;16.00;;
1837;SDS011;918;50.796;6.772;2023-11-21T03:09:12;19.77;;;17.77;;
1837;SDS011;918;50.796;6.772;2023-11-21T03:11:37;18.80;;;17.00;;
1837;SDS011;918;50.796;6.772;2023-11-21T03:14:03;19.83;;;16.67;;
1837;SDS011;918;50.796;6.772;2023-11-21T03:16:28;20.70;;;17.03;;
1837;SDS011;918;50.796;6.772;2023-11-21T03:18:54;20.00;;;15.93;;
1837;SDS011;918;50.796;6.772;2023-11-21T03:21:19;22.33;;;16.07;;
1837;SDS011;918;50.796;6.772;2023-11-21T03:23:44;18.53;;;15.07;;
1837;SDS011;918;50.796;6.772;2023-11-21T03:26:12;20.13;;;16.80;;
1837;SDS011;918;50.796;6.772;2023-11-21T03:28:38;18.77;;;14.87;;
1837;SDS011;918;50.796;6.772;2023-11-21T03:31:03;17.37;;;15.40;;
1837;SDS011;918;50.796;6.772;2023-11-21T03:33:29;18.90;;;15.67;;
1837;SDS011;918;50.796;6.772;2023-11-21T03:35:54;19.43;;;15.47;;
1837;SDS011;918;50.796;6.772;2023-11-21T03:38:19;16.93;;;14.10;;
1837;SDS011;918;50.796;6.772;2023-11-21T03:40:45;17.10;;;15.03;;
1837;SDS011;918;50.796;6.772;2023-11-21T03:43:10;15.93;;;14.20;;
1837;SDS011;918;50.796;6.772;2023-11-21T03:45:35;18.83;;;13.97;;
1837;SDS011;918;50.796;6.772;2023-11-21T03:48:01;14.57;;;13.10;;
1837;SDS011;918;50.796;6.772;2023-11-21T03:50:27;16.93;;;14.17;;
1837;SDS011;918;50.796;6.772;2023-11-21T03:52:56;17.70;;;14.10;;
1837;SDS011;918;50.796;6.772;2023-11-21T03:55:21;15.63;;;13.93;;
1837;SDS011;918;50.796;6.772;2023-11-21T03:57:48;14.83;;;13.37;;
1837;SDS011;918;50.796;6.772;2023-11-21T04:00:13;17.03;;;13.90;;
1837;SDS011;918;50.796;6.772;2023-11-21T04:02:39;15.50;;;13.10;;
1837;SDS011;918;50.796;6.772;2023-11-21T04:05:05;15.33;;;13.53;;
1837;SDS011;918;50.796;6.772;2023-11-21T04:07:32;13.90;;;11.33;;
1837;SDS011;918;50.796;6.772;2023-11-21T04:09:57;12.83;;;11.63;;
1837;SDS011;918;50.796;6.772;2023-11-21T04:12:22;14.97;;;12.20;;
1837;SDS011;918;50.796;6.772;2023-11-21T04:14:48;13.70;;;11.40;;
1837;SDS011;918;50.796;6.772;2023-11-21T04:17:13;15.10;;;11.10;;
1837;SDS011;918;50.796;6.772;2023-11-21T04:19:38;14.83;;;12.33;;
1837;SDS011;918;50.796;6.772;2023-11-21T04:22:03;16.27;;;11.27;;
1837;SDS011;918;50.796;6.772;2023-11-21T04:24:29;13.87;;;12.33;;
1837;SDS011;918;50.796;6.772;2023-11-21T04:26:54;14.50;;;10.60;;
1837;SDS011;918;50.796;6.772;2023-11-21T04:29:19;13.13;;;11.77;;
1837;SDS011;918;50.796;6.772;2023-11-21T04:31:44;15.73;;;11.97;;
1837;SDS011;918;50.796;6.772;2023-11-21T04:34:10;13.90;;;12.37;;
1837;SDS011;918;50.796;6.772;2023-11-21T04:36:35;15.37;;;11.63;;
1837;SDS011;918;50.796;6.772;2023-11-21T04:39:00;13.20;;;11.67;;
1837;SDS011;918;50.796;6.772;2023-11-21T04:41:25;13.07;;;10.83;;
1837;SDS011;918;50.796;6.772;2023-11-21T04:43:51;15.90;;;11.83;;
1837;SDS011;918;50.796;6.772;2023-11-21T04:46:16;15.40;;;12.00;;
1837;SDS011;918;50.796;6.772;2023-11-21T04:48:41;14.87;;;12.70;;
1837;SDS011;918;50.796;6.772;2023-11-21T04:51:07;16.70;;;13.77;;
1837;SDS011;918;50.796;6.772;2023-11-21T04:53:32;14.83;;;12.80;;
1837;SDS011;918;50.796;6.772;2023-11-21T04:55:57;13.27;;;11.87;;
1837;SDS011;918;50.796;6.772;2023-11-21T04:58:23;15.13;;;12.10;;
1837;SDS011;918;50.796;6.772;2023-11-21T05:00:49;13.70;;;11.83;;
1837;SDS011;918;50.796;6.772;2023-11-21T05:03:14;13.70;;;12.30;;
1837;SDS011;918;50.796;6.772;2023-11-21T05:05:40;14.97;;;12.40;;
1837;SDS011;918;50.796;6.772;2023-11-21T05:08:05;14.87;;;13.20;;
1837;SDS011;918;50.796;6.772;2023-11-21T05:10:30;13.60;;;12.20;;
1837;SDS011;918;50.796;6.772;2023-11-21T05:12:55;19.93;;;12.50;;
1837;SDS011;918;50.796;6.772;2023-11-21T05:15:21;14.43;;;12.90;;
1837;SDS011;918;50.796;6.772;2023-11-21T05:17:46;20.17;;;14.20;;
1837;SDS011;918;50.796;6.772;2023-11-21T05:20:14;16.73;;;13.80;;
1837;SDS011;918;50.796;6.772;2023-11-21T05:22:45;15.63;;;14.03;;
1837;SDS011;918;50.796;6.772;2023-11-21T05:25:11;19.17;;;15.50;;
1837;SDS011;918;50.796;6.772;2023-11-21T05:27:36;16.50;;;14.47;;
1837;SDS011;918;50.796;6.772;2023-11-21T05:30:02;18.27;;;15.57;;
1837;SDS011;918;50.796;6.772;2023-11-21T05:32:30;17.90;;;16.07;;
1837;SDS011;918;50.796;6.772;2023-11-21T05:34:55;21.17;;;17.03;;
1837;SDS011;918;50.796;6.772;2023-11-21T05:37:20;21.10;;;19.00;;
1837;SDS011;918;50.796;6.772;2023-11-21T05:39:46;22.00;;;16.13;;
1837;SDS011;918;50.796;6.772;2023-11-21T05:42:11;20.63;;;17.90;;
1837;SDS011;918;50.796;6.772;2023-11-21T05:44:37;24.20;;;18.17;;
1837;SDS011;918;50.796;6.772;2023-11-21T05:47:02;18.43;;;16.60;;
1837;SDS011;918;50.796;6.772;2023-11-21T05:49:28;19.17;;;17.17;;
1837;SDS011;918;50.796;6.772;2023-11-21T05:51:54;20.50;;;18.50;;
1837;SDS011;918;50.796;6.772;2023-11-21T05:54:20;22.80;;;17.90;;
1837;SDS011;918;50.796;6.772;2023-11-21T05:56:45;22.30;;;18.90;;
1837;SDS011;918;50.796;6.772;2023-11-21T05:59:12;21.30;;;17.97;;
1837;SDS011;918;50.796;6.772;2023-11-21T06:01:37;22.43;;;19.60;;
1837;SDS011;918;50.796;6.772;2023-11-21T06:04:03;24.60;;;18.90;;
1837;SDS011;918;50.796;6.772;2023-11-21T06:06:29;21.57;;;17.53;;
1837;SDS011;918;50.796;6.772;2023-11-21T06:08:56;20.80;;;18.60;;
1837;SDS011;918;50.796;6.772;2023-11-21T06:11:21;22.47;;;17.70;;
1837;SDS011;918;50.796;6.772;2023-11-21T06:13:46;21.37;;;17.27;;
1837;SDS011;918;50.796;6.772;2023-11-21T06:16:13;20.60;;;18.10;;
1837;SDS011;918;50.796;6.772;2023-11-21T06:18:41;21.57;;;18.20;;
1837;SDS011;918;50.796;6.772;2023-11-21T06:21:09;23.00;;;17.33;;
1837;SDS011;918;50.796;6.772;2023-11-21T06:23:34;19.20;;;17.20;;
1837;SDS011;918;50.796;6.772;2023-11-21T06:25:59;21.43;;;17.83;;
1837;SDS011;918;50.796;6.772;2023-11-21T06:28:25;18.63;;;16.60;;
1837;SDS011;918;50.796;6.772;2023-11-21T06:30:50;24.33;;;18.97;;
1837;SDS011;918;50.796;6.772;2023-11-21T06:33:15;21.47;;;19.13;;
1837;SDS011;918;50.796;6.772;2023-11-21T06:35:41;20.90;;;18.70;;
1837;SDS011;918;50.796;6.772;2023-11-21T06:38:06;22.37;;;19.97;;
1837;SDS011;918;50.796;6.772;2023-11-21T06:40:31;24.23;;;21.00;;
1837;SDS011;918;50.796;6.772;2023-11-21T06:42:58;22.03;;;19.60;;
1837;SDS011;918;50.796;6.772;2023-11-21T06:45:24;22.30;;;19.87;;
1837;SDS011;918;50.796;6.772;2023-11-21T06:47:49;22.53;;;17.80;;
1837;SDS011;918;50.796;6.772;2023-11-21T06:50:14;22.37;;;19.63;;
1837;SDS011;918;50.796;6.772;2023-11-21T06:52:39;20.10;;;17.97;;
1837;SDS011;918;50.796;6.772;2023-11-21T06:55:05;22.23;;;18.13;;
1837;SDS011;918;50.796;6.772;2023-11-21T06:57:33;22.53;;;18.17;;
1837;SDS011;918;50.796;6.772;2023-11-21T06:59:58;22.70;;;19.00;;
1837;SDS011;918;50.796;6.772;2023-11-21T07:02:23;19.63;;;17.60;;
1837;SDS011;918;50.796;6.772;2023-11-21T07:04:48;22.93;;;19.50;;
1837;SDS011;918;50.796;6.772;2023-11-21T07:07:14;21.53;;;19.10;;
1837;SDS011;918;50.796;6.772;2023-11-21T07:09:39;22.33;;;19.20;;
1837;SDS011;918;50.796;6.772;2023-11-21T07:12:04;21.83;;;18.10;;
1837;SDS011;918;50.796;6.772;2023-11-21T07:14:32;23.60;;;18.30;;
1837;SDS011;918;50.796;6.772;2023-11-21T07:16:58;18.60;;;16.07;;
1837;SDS011;918;50.796;6.772;2023-11-21T07:19:24;20.60;;;18.40;;
1837;SDS011;918;50.796;6.772;2023-11-21T07:21:49;17.13;;;15.13;;
1837;SDS011;918;50.796;6.772;2023-11-21T07:24:16;21.60;;;18.20;;
1837;SDS011;918;50.796;6.772;2023-11-21T07:26:41;21.83;;;17.80;;
1837;SDS011;918;50.796;6.772;2023-11-21T07:29:06;21.13;;;17.83;;
1837;SDS011;918;50.796;6.772;2023-11-21T07:31:32;22.90;;;18.67;;
1837;SDS011;918;50.796;6.772;2023-11-21T07:33:59;19.93;;;16.97;;
1837;SDS011;918;50.796;6.772;2023-11-21T07:36:24;21.03;;;18.73;;
1837;SDS011;918;50.796;6.772;2023-11-21T07:38:50;20.90;;;16.67;;
1837;SDS011;918;50.796;6.772;2023-11-21T07:41:16;20.10;;;16.23;;
1837;SDS011;918;50.796;6.772;2023-11-21T07:43:42;17.70;;;15.80;;
1837;SDS011;918;50.796;6.772;2023-11-21T07:46:08;18.43;;;15.80;;
1837;SDS011;918;50.796;6.772;2023-11-21T07:48:33;23.97;;;17.50;;
1837;SDS011;918;50.796;6.772;2023-11-21T07:51:01;18.40;;;15.03;;
1837;SDS011;918;50.796;6.772;2023-11-21T07:53:28;20.93;;;15.70;;
1837;SDS011;918;50.796;6.772;2023-11-21T07:55:55;20.60;;;16.00;;
1837;SDS011;918;50.796;6.772;2023-11-21T07:58:29;20.13;;;16.27;;
1837;SDS011;918;50.796;6.772;2023-11-21T08:00:55;20.20;;;16.30;;
1837;SDS011;918;50.796;6.772;2023-11-21T08:03:21;19.33;;;15.53;;
1837;SDS011;918;50.796;6.772;2023-11-21T08:05:46;21.93;;;15.63;;
1837;SDS011;918;50.796;6.772;2023-11-21T08:08:11;17.87;;;15.63;;
1837;SDS011;918;50.796;6.772;2023-11-21T08:10:37;21.03;;;16.20;;
1837;SDS011;918;50.796;6.772;2023-11-21T08:13:03;23.00;;;16.93;;
1837;SDS011;918;50.796;6.772;2023-11-21T08:15:30;20.70;;;14.67;;
1837;SDS011;918;50.796;6.772;2023-11-21T08:17:58;18.60;;;15.67;;
1837;SDS011;918;50.796;6.772;2023-11-21T08:20:26;21.50;;;16.27;;
1837;SDS011;918;50.796;6.772;2023-11-21T08:22:51;17.60;;;15.67;;
1837;SDS011;918;50.796;6.772;2023-11-21T08:25:17;26.00;;;16.50;;
1837;SDS011;918;50.796;6.772;2023-11-21T08:27:44;21.80;;;15.47;;
1837;SDS011;918;50.796;6.772;2023-11-21T08:30:10;20.57;;;16.70;;
1837;SDS011;918;50.796;6.772;2023-11-21T08:32:37;19.43;;;16.00;;
1837;SDS011;918;50.796;6.772;2023-11-21T08:35:02;20.20;;;17.20;;
1837;SDS011;918;50.796;6.772;2023-11-21T08:37:27;26.13;;;17.63;;
1837;SDS011;918;50.796;6.772;2023-11-21T08:39:55;19.60;;;15.27;;
1837;SDS011;918;50.796;6.772;2023-11-21T08:42:22;20.77;;;15.00;;
1837;SDS011;918;50.796;6.772;2023-11-21T08:44:48;18.80;;;15.57;;
1837;SDS011;918;50.796;6.772;2023-11-21T08:47:13;21.90;;;17.43;;
1837;SDS011;918;50.796;6.772;2023-11-21T08:49:39;18.70;;;14.67;;
1837;SDS011;918;50.796;6.772;2023-11-21T08:52:04;19.10;;;15.90;;
1837;SDS011;918;50.796;6.772;2023-11-21T08:54:31;22.27;;;16.03;;
1837;SDS011;918;50.796;6.772;2023-11-21T08:56:57;20.57;;;14.43;;
1837;SDS011;918;50.796;6.772;2023-11-21T08:59:23;16.87;;;15.03;;
1837;SDS011;918;50.796;6.772;2023-11-21T09:01:49;20.93;;;16.20;;
1837;SDS011;918;50.796;6.772;2023-11-21T09:04:14;24.97;;;19.87;;
1837;SDS011;918;50.796;6.772;2023-11-21T09:06:39;24.00;;;17.80;;
1837;SDS011;918;50.796;6.772;2023-11-21T09:09:05;23.83;;;17.63;;
1837;SDS011;918;50.796;6.772;2023-11-21T09:11:31;19.93;;;16.53;;
1837;SDS011;918;50.796;6.772;2023-11-21T09:13:58;28.73;;;17.57;;
1837;SDS011;918;50.796;6.772;2023-11-21T09:16:24;25.70;;;16.90;;
1837;SDS011;918;50.796;6.772;2023-11-21T09:18:49;25.43;;;18.50;;
1837;SDS011;918;50.796;6.772;2023-11-21T09:21:15;24.70;;;17.47;;
1837;SDS011;918;50.796;6.772;2023-11-21T09:23:40;30.60;;;20.27;;
1837;SDS011;918;50.796;6.772;2023-11-21T09:26:06;20.50;;;16.87;;
1837;SDS011;918;50.796;6.772;2023-11-21T09:28:31;21.83;;;16.50;;
1837;SDS011;918;50.796;6.772;2023-11-21T09:30:56;22.30;;;17.70;;
1837;SDS011;918;50.796;6.772;2023-11-21T09:33:22;21.20;;;16.43;;
1837;SDS011;918;50.796;6.772;2023-11-21T09:35:49;22.90;;;17.80;;
1837;SDS011;918;50.796;6.772;2023-11-21T09:38:15;23.50;;;16.43;;
1837;SDS011;918;50.796;6.772;2023-11-21T09:40:41;19.97;;;16.37;;
1837;SDS011;918;50.796;6.772;2023-11-21T09:43:08;19.23;;;15.83;;
1837;SDS011;918;50.796;6.772;2023-11-21T09:45:40;23.37;;;16.90;;
1837;SDS011;918;50.796;6.772;2023-11-21T09:48:10;22.83;;;17.20;;
1837;SDS011;918;50.796;6.772;2023-11-21T09:50:36;23.13;;;16.63;;
1837;SDS011;918;50.796;6.772;2023-11-21T09:53:13;21.37;;;17.37;;
1837;SDS011;918;50.796;6.772;2023-11-21T09:55:44;23.47;;;16.93;;
1837;SDS011;918;50.796;6.772;2023-11-21T09:58:11;20.63;;;16.33;;
1837;SDS011;918;50.796;6.772;2023-11-21T10:00:49;25.40;;;18.37;;
1837;SDS011;918;50.796;6.772;2023-11-21T10:03:15;25.63;;;17.23;;
1837;SDS011;918;50.796;6.772;2023-11-21T10:05:42;20.93;;;16.47;;
1837;SDS011;918;50.796;6.772;2023-11-21T10:08:08;24.93;;;17.50;;
1837;SDS011;918;50.796;6.772;2023-11-21T10:10:35;25.50;;;18.60;;
1837;SDS011;918;50.796;6.772;2023-11-21T10:13:01;22.40;;;18.30;;
1837;SDS011;918;50.796;6.772;2023-11-21T10:15:33;28.20;;;19.20;;
1837;SDS011;918;50.796;6.772;2023-11-21T10:18:00;26.07;;;18.90;;
1837;SDS011;918;50.796;6.772;2023-11-21T10:20:27;27.23;;;18.93;;
1837;SDS011;918;50.796;6.772;2023-11-21T10:22:54;26.03;;;19.50;;
1837;SDS011;918;50.796;6.772;2023-11-21T10:25:21;28.33;;;20.10;;
1837;SDS011;918;50.796;6.772;2023-11-21T10:27:47;30.80;;;19.77;;
1837;SDS011;918;50.796;6.772;2023-11-21T10:30:15;26.97;;;17.87;;
1837;SDS011;918;50.796;6.772;2023-11-21T10:32:41;25.43;;;18.47;;
1837;SDS011;918;50.796;6.772;2023-11-21T10:35:08;26.17;;;19.77;;
1837;SDS011;918;50.796;6.772;2023-11-21T10:37:37;29.23;;;19.10;;
1837;SDS011;918;50.796;6.772;2023-11-21T10:40:06;27.70;;;18.80;;
1837;SDS011;918;50.796;6.772;2023-11-21T10:42:33;28.83;;;19.40;;
1837;SDS011;918;50.796;6.772;2023-11-21T10:44:58;27.20;;;18.73;;
1837;SDS011;918;50.796;6.772;2023-11-21T10:47:23;27.20;;;18.70;;
1837;SDS011;918;50.796;6.772;2023-11-21T10:49:49;24.07;;;16.40;;
1837;SDS011;918;50.796;6.772;2023-11-21T10:52:14;22.97;;;17.20;;
1837;SDS011;918;50.796;6.772;2023-11-21T10:54:42;27.40;;;17.70;;
1837;SDS011;918;50.796;6.772;2023-11-21T10:57:08;25.20;;;17.00;;
1837;SDS011;918;50.796;6.772;2023-11-21T10:59:35;27.57;;;17.50;;
1837;SDS011;918;50.796;6.772;2023-11-21T11:02:01;28.90;;;16.87;;
1837;SDS011;918;50.796;6.772;2023-11-21T11:04:28;30.13;;;18.33;;
1837;SDS011;918;50.796;6.772;2023-11-21T11:07:02;24.70;;;16.83;;
1837;SDS011;918;50.796;6.772;2023-11-21T11:09:28;23.03;;;15.60;;
1837;SDS011;918;50.796;6.772;2023-11-21T11:11:55;25.63;;;17.23;;
1837;SDS011;918;50.796;6.772;2023-11-21T11:14:21;25.53;;;17.93;;
1837;SDS011;918;50.796;6.772;2023-11-21T11:16:50;28.23;;;16.83;;
1837;SDS011;918;50.796;6.772;2023-11-21T11:19:18;22.37;;;15.20;;
1837;SDS011;918;50.796;6.772;2023-11-21T11:21:46;20.83;;;15.40;;
1837;SDS011;918;50.796;6.772;2023-11-21T11:27:02;20.93;;;14.27;;
1837;SDS011;918;50.796;6.772;2023-11-21T11:35:04;21.23;;;14.67;;
1837;SDS011;918;50.796;6.772;2023-11-21T11:37:51;22.47;;;12.40;;
1837;SDS011;918;50.796;6.772;2023-11-21T11:40:16;21.67;;;14.30;;
1837;SDS011;918;50.796;6.772;2023-11-21T11:42:57;24.43;;;14.30;;
1837;SDS011;918;50.796;6.772;2023-11-21T11:45:31;21.60;;;14.47;;
1837;SDS011;918;50.796;6.772;2023-11-21T11:47:58;18.63;;;13.93;;
1837;SDS011;918;50.796;6.772;2023-11-21T11:50:25;24.30;;;15.87;;
1837;SDS011;918;50.796;6.772;2023-11-21T11:52:52;21.23;;;14.00;;
1837;SDS011;918;50.796;6.772;2023-11-21T11:55:20;21.10;;;14.67;;
1837;SDS011;918;50.796;6.772;2023-11-21T11:57:47;22.63;;;14.70;;
1837;SDS011;918;50.796;6.772;2023-11-21T12:00:18;27.07;;;14.80;;
1837;SDS011;918;50.796;6.772;2023-11-21T12:02:49;22.03;;;13.57;;
1837;SDS011;918;50.796;6.772;2023-11-21T12:05:16;23.23;;;16.07;;
1837;SDS011;918;50.796;6.772;2023-11-21T12:07:49;26.47;;;14.43;;
1837;SDS011;918;50.796;6.772;2023-11-21T12:10:15;23.73;;;14.63;;
1837;SDS011;918;50.796;6.772;2023-11-21T12:12:52;23.10;;;15.73;;
1837;SDS011;918;50.796;6.772;2023-11-21T12:15:19;21.90;;;15.10;;
1837;SDS011;918;50.796;6.772;2023-11-21T12:17:45;20.13;;;14.13;;
1837;SDS011;918;50.796;6.772;2023-11-21T12:20:14;27.17;;;14.47;;
1837;SDS011;918;50.796;6.772;2023-11-21T12:22:49;21.43;;;13.63;;
1837;SDS011;918;50.796;6.772;2023-11-21T12:25:16;22.20;;;13.60;;
1837;SDS011;918;50.796;6.772;2023-11-21T12:27:44;24.73;;;14.90;;
1837;SDS011;918;50.796;6.772;2023-11-21T12:30:11;21.40;;;14.30;;
1837;SDS011;918;50.796;6.772;2023-11-21T12:32:39;24.30;;;14.53;;
1837;SDS011;918;50.796;6.772;2023-11-21T12:35:06;29.33;;;16.50;;
1837;SDS011;918;50.796;6.772;2023-11-21T12:37:32;21.50;;;13.90;;
1837;SDS011;918;50.796;6.772;2023-11-21T12:39:57;21.10;;;13.03;;
1837;SDS011;918;50.796;6.772;2023-11-21T12:42:23;24.07;;;13.27;;
1837;SDS011;918;50.796;6.772;2023-11-21T12:44:48;25.53;;;15.10;;
1837;SDS011;918;50.796;6.772;2023-11-21T12:47:33;28.23;;;14.77;;
1837;SDS011;918;50.796;6.772;2023-11-21T12:50:00;21.33;;;14.60;;
1837;SDS011;918;50.796;6.772;2023-11-21T12:52:27;26.50;;;14.97;;
1837;SDS011;918;50.796;6.772;2023-11-21T12:54:53;20.97;;;14.03;;
1837;SDS011;918;50.796;6.772;2023-11-21T12:57:18;24.47;;;15.40;;
1837;SDS011;918;50.796;6.772;2023-11-21T12:59:45;20.90;;;15.03;;
1837;SDS011;918;50.796;6.772;2023-11-21T13:02:12;22.93;;;14.23;;
1837;SDS011;918;50.796;6.772;2023-11-21T13:04:39;20.07;;;13.57;;
1837;SDS011;918;50.796;6.772;2023-11-21T13:07:05;27.07;;;14.63;;
1837;SDS011;918;50.796;6.772;2023-11-21T13:09:39;19.90;;;13.93;;
1837;SDS011;918;50.796;6.772;2023-11-21T13:12:04;19.27;;;13.23;;
1837;SDS011;918;50.796;6.772;2023-11-21T13:14:33;20.33;;;14.17;;
1837;SDS011;918;50.796;6.772;2023-11-21T13:16:58;21.80;;;14.03;;
1837;SDS011;918;50.796;6.772;2023-11-21T13:19:24;18.03;;;13.20;;
1837;SDS011;918;50.796;6.772;2023-11-21T13:21:49;20.60;;;13.37;;
1837;SDS011;918;50.796;6.772;2023-11-21T13:24:15;22.33;;;13.93;;
1837;SDS011;918;50.796;6.772;2023-11-21T13:26:41;24.00;;;15.80;;
1837;SDS011;918;50.796;6.772;2023-11-21T13:29:07;19.83;;;13.20;;
1837;SDS011;918;50.796;6.772;2023-11-21T13:31:33;23.30;;;14.40;;
1837;SDS011;918;50.796;6.772;2023-11-21T13:34:01;22.93;;;14.80;;
1837;SDS011;918;50.796;6.772;2023-11-21T13:36:30;24.93;;;15.40;;
1837;SDS011;918;50.796;6.772;2023-11-21T13:38:58;19.23;;;14.17;;
1837;SDS011;918;50.796;6.772;2023-11-21T13:41:24;20.83;;;14.10;;
1837;SDS011;918;50.796;6.772;2023-11-21T13:43:55;19.93;;;14.20;;
1837;SDS011;918;50.796;6.772;2023-11-21T13:46:31;20.33;;;13.87;;
1837;SDS011;918;50.796;6.772;2023-11-21T13:49:01;16.57;;;12.60;;
1837;SDS011;918;50.796;6.772;2023-11-21T13:51:27;22.97;;;15.63;;
1837;SDS011;918;50.796;6.772;2023-11-21T13:54:02;21.50;;;13.53;;
1837;SDS011;918;50.796;6.772;2023-11-21T13:56:30;20.17;;;13.73;;
1837;SDS011;918;50.796;6.772;2023-11-21T13:58:56;21.77;;;13.80;;
1837;SDS011;918;50.796;6.772;2023-11-21T14:01:24;20.40;;;13.33;;
1837;SDS011;918;50.796;6.772;2023-11-21T14:04:00;21.53;;;13.37;;
1837;SDS011;918;50.796;6.772;2023-11-21T14:06:34;20.60;;;14.30;;
1837;SDS011;918;50.796;6.772;2023-11-21T14:09:07;19.70;;;14.17;;
1837;SDS011;918;50.796;6.772;2023-11-21T14:11:32;17.60;;;12.40;;
1837;SDS011;918;50.796;6.772;2023-11-21T14:13:59;18.10;;;13.80;;
1837;SDS011;918;50.796;6.772;2023-11-21T14:16:25;17.07;;;13.20;;
1837;SDS011;918;50.796;6.772;2023-11-21T14:18:50;22.73;;;14.27;;
1837;SDS011;918;50.796;6.772;2023-11-21T14:21:22;20.67;;;14.67;;
1837;SDS011;918;50.796;6.772;2023-11-21T14:23:47;25.07;;;14.73;;
1837;SDS011;918;50.796;6.772;2023-11-21T14:26:13;19.77;;;15.33;;
1837;SDS011;918;50.796;6.772;2023-11-21T14:28:40;22.40;;;14.63;;
1837;SDS011;918;50.796;6.772;2023-11-21T14:31:06;25.47;;;15.80;;
1837;SDS011;918;50.796;6.772;2023-11-21T14:33:33;21.43;;;15.43;;
1837;SDS011;918;50.796;6.772;2023-11-21T14:35:59;20.90;;;15.00;;
1837;SDS011;918;50.796;6.772;2023-11-21T14:38:24;23.53;;;16.87;;
1837;SDS011;918;50.796;6.772;2023-11-21T14:40:49;24.53;;;17.63;;
1837;SDS011;918;50.796;6.772;2023-11-21T14:43:15;26.17;;;17.33;;
1837;SDS011;918;50.796;6.772;2023-11-21T14:45:40;24.00;;;16.27;;
1837;SDS011;918;50.796;6.772;2023-11-21T14:48:06;19.37;;;14.90;;
1837;SDS011;918;50.796;6.772;2023-11-21T14:50:33;22.93;;;13.90;;
1837;SDS011;918;50.796;6.772;2023-11-21T14:53:17;23.63;;;13.97;;
1837;SDS011;918;50.796;6.772;2023-11-21T14:56:01;17.77;;;14.40;;
1837;SDS011;918;50.796;6.772;2023-11-21T14:58:29;25.53;;;15.40;;
1837;SDS011;918;50.796;6.772;2023-11-21T15:00:57;17.63;;;14.77;;
1837;SDS011;918;50.796;6.772;2023-11-21T15:03:24;18.50;;;13.90;;
1837;SDS011;918;50.796;6.772;2023-11-21T15:06:08;20.90;;;13.87;;